Time;durP1;ratioP1;P1;durP2;ratioP2;P2;SDS_P1;SDS_P2;PMS_P1;PMS_P2;Temp;Humidity;BMP_temperature;BMP_pressure;BME280_temperature;BME280_humidity;BME280_pressure;Samples;Min_cycle;Max_cycle;Signal;HPM_P1;HPM_P2
2022/11/05 00:09:53;;;;;;;17.60;14.70;;;12.10;99.90;;;;;;4975003;28;20542;-75
2022/11/05 00:17:48;;;;;;;19.20;14.27;;;12.00;99.90;;;;;;4969171;28;20198;-76
2022/11/05 00:20:13;;;;;;;22.60;15.10;;;12.00;99.90;;;;;;4992984;28;20171;-76
2022/11/05 00:25:24;;;;;;;17.45;13.77;;;11.80;99.90;;;;;;4983518;28;20175;-76
2022/11/05 00:27:51;;;;;;;18.67;13.33;;;11.80;99.90;;;;;;4975499;28;20175;-76
2022/11/05 00:30:27;;;;;;;12.80;10.57;;;11.70;99.90;;;;;;4977604;28;20231;-76
2022/11/05 00:32:53;;;;;;;12.65;11.20;;;11.60;99.90;;;;;;4983615;28;20285;-76
2022/11/05 00:35:20;;;;;;;12.27;10.70;;;11.60;99.90;;;;;;4988513;28;20674;-76
2022/11/05 00:37:46;;;;;;;15.10;11.35;;;11.50;99.90;;;;;;4992256;28;20179;-76
2022/11/05 00:40:13;;;;;;;12.07;10.77;;;11.50;99.90;;;;;;4959316;28;20171;-76
2022/11/05 00:45:29;;;;;;;13.57;10.75;;;11.40;99.90;;;;;;4973271;28;20181;-76
2022/11/05 00:50:39;;;;;;;13.95;9.93;;;11.30;99.90;;;;;;4977851;28;20199;-75
2022/11/05 00:53:05;;;;;;;15.90;12.48;;;11.20;99.90;;;;;;4972998;28;20196;-76
2022/11/05 00:55:41;;;;;;;14.40;12.43;;;11.10;99.90;;;;;;4955884;28;20211;-76
2022/11/05 00:58:10;;;;;;;16.77;12.88;;;11.10;99.90;;;;;;4973218;28;20646;-76
2022/11/05 01:00:38;;;;;;;15.15;13.20;;;11.00;99.90;;;;;;4972276;28;20191;-76
2022/11/05 01:03:07;;;;;;;13.00;11.05;;;11.00;99.90;;;;;;4971858;28;20243;-76
2022/11/05 01:05:37;;;;;;;13.57;9.98;;;11.00;99.90;;;;;;4973063;28;20183;-76
2022/11/05 01:08:03;;;;;;;15.75;10.85;;;10.90;99.90;;;;;;4972820;28;20171;-76
2022/11/05 01:10:29;;;;;;;11.70;9.97;;;10.90;99.90;;;;;;4950405;28;20522;-79
2022/11/05 01:12:55;;;;;;;13.40;11.48;;;10.80;99.90;;;;;;4972402;28;20698;-79
2022/11/05 01:15:21;;;;;;;12.85;10.10;;;10.80;99.90;;;;;;4973745;28;20192;-80
2022/11/05 01:17:47;;;;;;;16.25;11.55;;;10.70;99.90;;;;;;4973957;28;20197;-80
2022/11/05 01:20:13;;;;;;;19.52;14.45;;;10.70;99.90;;;;;;4956556;28;20570;-79
2022/11/05 01:22:39;;;;;;;21.30;14.70;;;10.70;99.90;;;;;;4973638;28;20318;-79
2022/11/05 01:25:06;;;;;;;18.03;14.30;;;10.60;99.90;;;;;;4973948;28;20168;-79
2022/11/05 01:27:32;;;;;;;22.13;15.27;;;10.60;99.90;;;;;;4980023;28;20176;-77
2022/11/05 01:29:57;;;;;;;17.73;13.87;;;10.50;99.90;;;;;;4976345;28;20186;-79
2022/11/05 01:32:23;;;;;;;22.07;15.20;;;10.50;99.90;;;;;;4974272;28;20208;-79
2022/11/05 01:34:49;;;;;;;18.70;16.47;;;10.50;99.90;;;;;;4985763;28;20207;-80
2022/11/05 01:37:15;;;;;;;20.03;14.47;;;10.40;99.90;;;;;;4984758;28;20192;-80
2022/11/05 01:39:40;;;;;;;17.73;13.17;;;10.40;99.90;;;;;;4973598;28;20624;-80
2022/11/05 01:42:24;;;;;;;17.37;13.10;;;10.30;99.90;;;;;;4974058;28;20179;-80
2022/11/05 01:44:54;;;;;;;13.95;11.55;;;10.30;99.90;;;;;;4992051;28;20199;-79
2022/11/05 01:47:33;;;;;;;17.20;10.70;;;10.30;99.90;;;;;;4991941;28;20523;-79
2022/11/05 01:50:11;;;;;;;14.45;10.63;;;10.30;99.90;;;;;;4992209;28;20179;-80
2022/11/05 01:52:37;;;;;;;14.80;10.88;;;10.20;99.90;;;;;;4974189;28;20202;-81
2022/11/05 01:55:04;;;;;;;16.17;11.90;;;10.20;99.90;;;;;;4992067;28;20226;-79
2022/11/05 01:57:31;;;;;;;15.27;10.77;;;10.20;99.90;;;;;;4974730;28;20570;-79
2022/11/05 01:59:59;;;;;;;14.00;11.00;;;10.20;99.90;;;;;;4991914;28;20174;-79
2022/11/05 02:02:26;;;;;;;11.95;8.27;;;10.10;99.90;;;;;;4991432;28;20515;-79
2022/11/05 02:04:56;;;;;;;10.15;8.35;;;10.10;99.90;;;;;;4979827;28;20191;-79
2022/11/05 02:07:24;;;;;;;12.13;10.70;;;10.10;99.90;;;;;;4995290;28;20509;-79
2022/11/05 02:10:12;;;;;;;10.30;8.80;;;10.10;99.90;;;;;;4977841;28;20178;-80
2022/11/05 02:12:41;;;;;;;9.82;8.80;;;10.00;99.90;;;;;;4977653;28;20248;-80
2022/11/05 02:15:13;;;;;;;11.02;9.35;;;10.00;99.90;;;;;;4995199;28;20195;-81
2022/11/05 02:18:04;;;;;;;10.85;9.18;;;10.00;99.90;;;;;;4977486;28;20179;-80
2022/11/05 02:20:32;;;;;;;10.48;9.38;;;9.90;99.90;;;;;;4995150;28;20254;-81
2022/11/05 02:23:04;;;;;;;13.73;8.85;;;9.90;99.90;;;;;;4994611;28;20179;-81
2022/11/05 02:25:48;;;;;;;9.63;8.30;;;9.90;99.90;;;;;;4993773;28;20606;-81
2022/11/05 02:28:31;;;;;;;9.95;8.95;;;9.90;99.90;;;;;;4977576;28;20229;-81
2022/11/05 02:31:03;;;;;;;11.00;9.43;;;9.90;99.90;;;;;;4993531;28;20576;-81
2022/11/05 02:33:40;;;;;;;12.07;9.45;;;9.90;99.90;;;;;;4994343;28;20187;-81
2022/11/05 02:36:25;;;;;;;10.65;8.25;;;9.90;99.90;;;;;;4977201;28;20182;-80
2022/11/05 02:39:28;;;;;;;10.38;9.23;;;9.90;99.90;;;;;;4994700;28;20159;-80
2022/11/05 02:42:21;;;;;;;11.05;8.65;;;10.00;99.90;;;;;;4998414;28;20186;-80
2022/11/05 02:45:02;;;;;;;9.80;8.30;;;10.00;99.90;;;;;;4995268;28;20171;-80
2022/11/05 02:47:42;;;;;;;10.68;8.35;;;10.10;99.90;;;;;;4977072;28;20275;-80
2022/11/05 02:50:28;;;;;;;13.05;9.68;;;10.20;99.90;;;;;;4993638;28;20175;-80
2022/11/05 02:53:09;;;;;;;11.27;9.68;;;10.20;99.90;;;;;;4985395;28;20199;-80
2022/11/05 02:55:48;;;;;;;10.85;9.75;;;10.30;99.90;;;;;;4973487;28;20227;-80
2022/11/05 02:58:13;;;;;;;11.20;9.50;;;10.40;99.90;;;;;;4978582;28;20187;-80
2022/11/05 03:00:45;;;;;;;10.17;9.07;;;10.50;99.90;;;;;;4970100;28;20197;-80
2022/11/05 03:03:15;;;;;;;9.20;8.30;;;10.60;99.90;;;;;;4988689;28;20187;-80
2022/11/05 03:06:06;;;;;;;10.90;8.45;;;10.60;99.90;;;;;;4991502;28;20548;-80
2022/11/05 03:08:59;;;;;;;9.02;7.50;;;10.70;99.90;;;;;;4992145;28;20655;-80
2022/11/05 03:11:31;;;;;;;9.77;7.28;;;10.70;99.90;;;;;;4993985;28;20171;-81
2022/11/05 03:14:02;;;;;;;9.43;7.30;;;10.80;99.90;;;;;;4992496;28;20202;-81
2022/11/05 03:16:37;;;;;;;11.82;8.18;;;10.80;99.90;;;;;;4993760;28;20167;-81
2022/11/05 03:19:15;;;;;;;8.82;7.75;;;10.90;99.90;;;;;;4981398;28;20230;-80
2022/11/05 03:21:56;;;;;;;8.32;7.47;;;10.90;99.90;;;;;;4994461;28;20504;-81
2022/11/05 03:24:37;;;;;;;11.57;7.88;;;10.90;99.90;;;;;;4960409;28;20253;-81
2022/11/05 03:27:14;;;;;;;7.78;7.05;;;10.90;99.90;;;;;;4976821;28;20179;-80
2022/11/05 03:29:48;;;;;;;13.52;6.47;;;11.00;99.90;;;;;;4994173;28;20547;-81
2022/11/05 03:32:16;;;;;;;7.70;6.93;;;11.00;99.90;;;;;;4993400;28;20213;-80
2022/11/05 03:34:46;;;;;;;9.88;7.78;;;11.00;99.90;;;;;;4993866;28;20207;-80
2022/11/05 03:37:13;;;;;;;9.02;8.10;;;11.00;99.90;;;;;;4994064;28;20167;-80
2022/11/05 03:39:47;;;;;;;7.90;7.10;;;11.10;99.90;;;;;;4992626;28;20183;-80
2022/11/05 03:42:16;;;;;;;9.23;7.72;;;11.10;99.90;;;;;;4975693;28;20222;-81
2022/11/05 03:44:47;;;;;;;8.77;7.93;;;11.10;99.90;;;;;;4994481;28;20163;-80
2022/11/05 03:47:18;;;;;;;10.20;7.97;;;11.20;99.90;;;;;;4960491;28;20179;-80
2022/11/05 03:50:20;;;;;;;9.60;8.32;;;11.20;99.90;;;;;;4994617;28;20619;-80
2022/11/05 03:52:58;;;;;;;9.38;7.85;;;11.10;99.90;;;;;;4983966;28;20241;-80
2022/11/05 03:55:31;;;;;;;9.73;8.82;;;11.10;99.90;;;;;;4994938;28;20203;-80
2022/11/05 03:57:58;;;;;;;9.23;8.27;;;11.10;99.90;;;;;;4997820;28;20179;-80
2022/11/05 04:00:24;;;;;;;10.18;8.38;;;11.00;99.90;;;;;;4993623;28;20262;-78
2022/11/05 04:02:49;;;;;;;9.33;8.20;;;10.90;99.90;;;;;;4993487;28;20278;-79
2022/11/05 04:05:15;;;;;;;7.83;7.00;;;10.90;99.90;;;;;;4993177;28;20633;-79
2022/11/05 04:13:25;;;;;;;11.77;10.00;;;10.60;99.90;;;;;;4992791;28;20538;-79
2022/11/05 04:18:40;;;;;;;11.52;9.00;;;10.40;99.90;;;;;;4974619;28;20186;-80
2022/11/05 04:24:09;;;;;;;9.35;8.35;;;10.30;99.90;;;;;;4955555;28;20294;-80
2022/11/05 04:26:42;;;;;;;11.27;10.02;;;10.20;99.90;;;;;;4973418;28;20167;-80
2022/11/05 04:31:53;;;;;;;13.48;9.43;;;10.10;99.90;;;;;;4973161;28;20176;-80
2022/11/05 04:34:20;;;;;;;13.38;9.77;;;10.00;99.90;;;;;;4977364;28;20607;-79
2022/11/05 04:36:48;;;;;;;13.50;9.38;;;10.00;99.90;;;;;;4973345;28;20585;-79
2022/11/05 04:39:18;;;;;;;14.32;9.60;;;9.90;99.90;;;;;;4973396;28;20202;-80
2022/11/05 04:41:47;;;;;;;11.23;9.98;;;9.90;99.90;;;;;;4955699;28;20179;-80
2022/11/05 04:44:14;;;;;;;11.35;10.20;;;9.80;99.90;;;;;;4972742;28;20637;-77
2022/11/05 04:46:40;;;;;;;10.68;9.55;;;9.80;99.90;;;;;;4939606;28;20187;-77
2022/11/05 04:49:06;;;;;;;12.43;10.20;;;9.70;99.90;;;;;;4973065;28;20164;-77
2022/11/05 04:51:31;;;;;;;10.23;8.80;;;9.70;99.90;;;;;;4971598;28;20544;-77
2022/11/05 04:53:57;;;;;;;11.63;8.93;;;9.70;99.90;;;;;;4972591;28;20965;-77
2022/11/05 04:56:24;;;;;;;10.97;8.50;;;9.60;99.90;;;;;;4972989;28;20171;-77
2022/11/05 04:58:50;;;;;;;10.32;8.80;;;9.60;99.90;;;;;;4972973;28;20172;-77
2022/11/05 05:01:18;;;;;;;9.90;8.10;;;9.60;99.90;;;;;;4972581;28;20171;-77
2022/11/05 05:03:48;;;;;;;8.63;7.68;;;9.50;99.90;;;;;;4972570;28;20191;-77
2022/11/05 05:06:14;;;;;;;10.32;9.23;;;9.50;99.90;;;;;;4955525;28;20175;-77
2022/11/05 05:08:40;;;;;;;9.70;8.63;;;9.50;99.90;;;;;;4972766;28;20164;-77
2022/11/05 05:11:10;;;;;;;8.10;7.23;;;9.50;99.90;;;;;;4976664;28;20235;-76
2022/11/05 05:13:35;;;;;;;9.60;7.95;;;9.40;99.90;;;;;;4972467;28;20230;-77
2022/11/05 05:16:10;;;;;;;9.73;8.37;;;9.40;99.90;;;;;;4973046;28;20270;-77
2022/11/05 05:18:36;;;;;;;11.20;9.52;;;9.40;99.90;;;;;;4971952;28;20198;-77
2022/11/05 05:23:47;;;;;;;8.23;7.38;;;9.40;99.90;;;;;;4954816;28;20194;-76
2022/11/05 05:26:14;;;;;;;11.90;8.30;;;9.40;99.90;;;;;;4972712;28;20199;-77
2022/11/05 05:28:39;;;;;;;9.10;8.20;;;9.40;99.90;;;;;;4955291;28;20208;-76
2022/11/05 05:31:05;;;;;;;10.90;8.80;;;9.40;99.90;;;;;;4972351;28;20191;-76
2022/11/05 05:33:31;;;;;;;9.10;7.80;;;9.40;99.90;;;;;;4972157;28;20191;-76
2022/11/05 05:35:57;;;;;;;11.40;8.27;;;9.30;99.90;;;;;;4972502;28;20622;-76
2022/11/05 05:38:24;;;;;;;14.45;9.25;;;9.40;99.90;;;;;;4972652;28;20172;-76
2022/11/05 05:40:50;;;;;;;12.15;9.50;;;9.30;99.90;;;;;;4957655;28;20815;-76
2022/11/05 05:43:17;;;;;;;11.77;8.75;;;9.30;99.90;;;;;;4958094;28;20694;-76
2022/11/05 05:45:42;;;;;;;13.50;9.45;;;9.30;99.90;;;;;;4975073;28;20171;-77
2022/11/05 05:48:08;;;;;;;10.30;8.70;;;9.30;99.90;;;;;;4980805;28;20167;-76
2022/11/05 05:50:34;;;;;;;11.43;10.17;;;9.20;99.90;;;;;;4976471;28;20175;-77
2022/11/05 05:53:06;;;;;;;10.55;9.20;;;9.20;99.90;;;;;;4975698;28;20195;-77
2022/11/05 05:55:32;;;;;;;10.40;8.70;;;9.20;99.90;;;;;;4976093;28;20524;-77
2022/11/05 05:57:57;;;;;;;13.80;10.00;;;9.20;99.90;;;;;;4975937;28;20179;-76
2022/11/05 06:00:23;;;;;;;12.77;10.47;;;9.10;99.90;;;;;;4975995;28;20171;-77
2022/11/05 06:02:49;;;;;;;11.63;8.90;;;9.10;99.90;;;;;;4975697;28;20190;-77
2022/11/05 06:05:14;;;;;;;13.47;10.40;;;9.10;99.90;;;;;;4974985;28;20258;-77
2022/11/05 06:07:40;;;;;;;10.33;9.23;;;9.10;99.90;;;;;;4958602;28;20176;-77
2022/11/05 06:10:06;;;;;;;10.93;9.30;;;9.00;99.90;;;;;;4975825;28;20167;-76
2022/11/05 06:12:32;;;;;;;11.23;10.13;;;9.00;99.90;;;;;;4958082;28;20223;-76
2022/11/05 06:14:58;;;;;;;12.20;10.53;;;9.00;99.90;;;;;;4975757;28;20653;-77
2022/11/05 06:17:23;;;;;;;13.27;11.13;;;8.90;99.90;;;;;;4975685;28;20570;-76
2022/11/05 06:19:49;;;;;;;14.40;11.07;;;8.90;99.90;;;;;;4958234;28;20699;-76
2022/11/05 06:22:15;;;;;;;12.90;10.93;;;8.90;99.90;;;;;;4975225;28;20223;-76
2022/11/05 06:24:41;;;;;;;13.87;10.07;;;8.90;99.90;;;;;;4976397;28;20167;-75
2022/11/05 06:27:06;;;;;;;11.90;9.73;;;8.90;99.90;;;;;;4976689;28;20628;-76
2022/11/05 06:29:32;;;;;;;13.17;11.70;;;8.90;99.90;;;;;;4975261;28;20572;-76
2022/11/05 06:31:58;;;;;;;13.97;10.87;;;8.90;99.90;;;;;;4957546;28;20176;-76
2022/11/05 06:34:23;;;;;;;13.00;11.60;;;8.80;99.90;;;;;;4975212;28;20196;-76
2022/11/05 06:36:49;;;;;;;11.47;10.30;;;8.80;99.90;;;;;;4975439;28;20160;-76
2022/11/05 06:39:15;;;;;;;11.50;10.37;;;8.80;99.90;;;;;;4975230;28;20574;-76
2022/11/05 06:41:42;;;;;;;16.67;10.40;;;8.80;99.90;;;;;;4975161;28;20687;-78
2022/11/05 06:44:08;;;;;;;12.25;9.18;;;8.80;99.90;;;;;;4957498;28;20544;-77
2022/11/05 06:46:33;;;;;;;18.20;11.37;;;8.80;99.90;;;;;;4975227;28;20179;-77
2022/11/05 06:48:59;;;;;;;13.10;10.10;;;8.80;99.90;;;;;;4975214;28;20229;-77
2022/11/05 06:51:26;;;;;;;12.37;11.07;;;8.80;99.90;;;;;;4974222;28;20271;-77
2022/11/05 06:53:51;;;;;;;12.65;11.00;;;8.90;99.90;;;;;;4974650;28;20607;-77
2022/11/05 06:56:17;;;;;;;12.33;10.50;;;8.90;99.90;;;;;;4975096;28;20179;-77
2022/11/05 06:58:43;;;;;;;14.60;10.37;;;8.90;99.90;;;;;;4957624;28;20644;-76
2022/11/05 07:01:09;;;;;;;12.70;10.07;;;8.90;99.90;;;;;;4974956;28;20172;-76
2022/11/05 07:03:38;;;;;;;12.95;10.13;;;8.90;99.90;;;;;;4976359;28;20179;-76
2022/11/05 07:06:05;;;;;;;18.10;11.10;;;9.00;99.90;;;;;;4975125;28;20176;-76
2022/11/05 07:08:32;;;;;;;14.77;10.77;;;9.00;99.90;;;;;;4974874;28;20167;-76
2022/11/05 07:10:58;;;;;;;13.25;10.77;;;9.00;99.90;;;;;;4974763;28;20175;-76
2022/11/05 07:13:25;;;;;;;16.98;11.55;;;9.00;99.90;;;;;;4974166;28;20561;-76
2022/11/05 07:15:50;;;;;;;11.65;9.98;;;9.10;99.90;;;;;;4974500;28;20290;-77
2022/11/05 07:18:16;;;;;;;12.33;10.80;;;9.10;99.90;;;;;;4957192;28;20255;-76
2022/11/05 07:20:42;;;;;;;13.53;9.47;;;9.10;99.90;;;;;;4974335;28;20172;-77
2022/11/05 07:23:12;;;;;;;15.53;12.73;;;9.10;99.90;;;;;;4970786;28;20203;-78
2022/11/05 07:25:39;;;;;;;11.35;9.77;;;9.10;99.90;;;;;;4978149;28;20601;-76
2022/11/05 07:28:05;;;;;;;12.93;9.70;;;9.10;99.90;;;;;;4962485;28;20254;-76
2022/11/05 07:30:33;;;;;;;13.13;10.25;;;9.20;99.90;;;;;;4975507;28;20184;-76
2022/11/05 07:32:59;;;;;;;12.45;11.00;;;9.20;99.90;;;;;;4973746;28;20199;-77
2022/11/05 07:35:25;;;;;;;16.00;11.07;;;9.20;99.90;;;;;;4968809;28;20200;-77
2022/11/05 07:37:52;;;;;;;11.95;10.02;;;9.20;99.90;;;;;;4971066;28;20748;-77
2022/11/05 07:40:19;;;;;;;11.55;9.95;;;9.30;99.90;;;;;;4991168;28;20170;-78
2022/11/05 07:42:48;;;;;;;12.52;9.68;;;9.40;99.90;;;;;;4991921;28;20217;-78
2022/11/05 07:45:14;;;;;;;12.20;10.10;;;9.40;99.90;;;;;;4956756;28;20658;-76
2022/11/05 07:47:47;;;;;;;12.85;10.55;;;9.50;99.90;;;;;;4974147;28;20186;-78
2022/11/05 07:50:13;;;;;;;10.88;9.65;;;9.60;99.90;;;;;;4974113;28;20179;-78
2022/11/05 07:52:42;;;;;;;10.90;9.48;;;9.60;99.90;;;;;;4970461;28;20196;-77
2022/11/05 07:55:09;;;;;;;11.57;10.32;;;9.70;99.90;;;;;;4985948;28;20203;-77
2022/11/05 07:57:42;;;;;;;11.02;8.65;;;9.80;99.90;;;;;;4974730;28;20173;-77
2022/11/05 08:00:11;;;;;;;13.60;8.60;;;9.80;99.90;;;;;;4973942;28;20203;-78
2022/11/05 08:02:38;;;;;;;9.25;7.15;;;9.90;99.90;;;;;;4973018;28;20192;-77
2022/11/05 08:05:04;;;;;;;12.40;9.10;;;10.00;99.90;;;;;;4977666;28;20533;-77
2022/11/05 08:07:30;;;;;;;9.10;7.68;;;10.00;99.90;;;;;;4978302;28;20575;-77
2022/11/05 08:09:55;;;;;;;10.40;8.43;;;10.10;99.90;;;;;;4973103;28;20168;-77
2022/11/05 08:12:21;;;;;;;15.30;9.03;;;10.10;99.90;;;;;;4973015;28;20195;-78
2022/11/05 08:14:47;;;;;;;10.60;9.00;;;10.20;99.90;;;;;;4973085;28;20203;-77
2022/11/05 08:17:13;;;;;;;11.63;8.17;;;10.30;99.90;;;;;;4978461;28;20265;-77
2022/11/05 08:19:41;;;;;;;10.60;8.93;;;10.30;99.90;;;;;;4988494;28;20172;-77
2022/11/05 08:22:12;;;;;;;9.45;8.35;;;10.40;99.90;;;;;;4971993;28;20209;-77
2022/11/05 08:24:38;;;;;;;12.50;7.93;;;10.50;99.90;;;;;;4988314;28;20683;-77
2022/11/05 08:27:04;;;;;;;8.73;7.83;;;10.60;99.90;;;;;;4973730;28;20175;-78
2022/11/05 08:29:29;;;;;;;9.37;7.73;;;10.70;99.90;;;;;;4973350;28;20584;-77
2022/11/05 08:31:55;;;;;;;9.93;7.37;;;10.80;99.90;;;;;;4973252;28;20183;-77
2022/11/05 08:34:21;;;;;;;10.20;8.07;;;10.90;99.90;;;;;;4991221;28;20282;-77
2022/11/05 08:36:46;;;;;;;9.57;7.93;;;10.90;99.90;;;;;;4992745;28;20163;-77
2022/11/05 08:39:13;;;;;;;9.37;7.27;;;11.00;99.90;;;;;;4992792;28;20175;-77
2022/11/05 08:41:39;;;;;;;10.70;7.55;;;11.10;99.90;;;;;;4975574;28;20175;-78
2022/11/05 08:44:07;;;;;;;9.57;6.43;;;11.20;99.90;;;;;;4999087;28;20230;-77
2022/11/05 08:46:36;;;;;;;9.25;7.72;;;11.30;99.90;;;;;;4996014;28;20167;-77
2022/11/05 08:49:03;;;;;;;12.30;7.25;;;11.40;99.90;;;;;;4999324;28;20233;-81
2022/11/05 08:51:29;;;;;;;11.63;7.95;;;11.50;99.90;;;;;;4995310;28;20171;-80
2022/11/05 08:53:55;;;;;;;10.38;6.78;;;11.60;99.90;;;;;;4986763;28;20218;-81
2022/11/05 08:56:22;;;;;;;7.47;5.67;;;11.70;99.90;;;;;;4985325;28;20175;-80
2022/11/05 08:58:48;;;;;;;6.97;6.25;;;12.00;99.90;;;;;;5000203;28;20203;-81
2022/11/05 09:01:14;;;;;;;9.77;6.45;;;12.50;99.90;;;;;;5003291;28;20166;-81
2022/11/05 09:03:40;;;;;;;8.50;5.43;;;13.10;99.90;;;;;;5000668;28;20190;-79
2022/11/05 09:06:06;;;;;;;8.10;6.20;;;13.80;99.90;;;;;;5001126;28;20574;-79
2022/11/05 09:08:31;;;;;;;6.57;5.30;;;14.70;99.90;;;;;;4982317;28;20229;-80
2022/11/05 09:10:57;;;;;;;5.57;4.70;;;15.70;99.90;;;;;;4999321;28;20952;-79
2022/11/05 09:13:23;;;;;;;5.73;4.03;;;16.80;99.90;;;;;;4981701;28;20215;-80
2022/11/05 09:15:49;;;;;;;4.63;3.30;;;17.80;99.90;;;;;;5000179;28;20198;-80
2022/11/05 09:18:17;;;;;;;8.00;4.33;;;18.80;99.90;;;;;;5000981;28;20593;-80
2022/11/05 09:20:43;;;;;;;7.23;3.30;;;19.60;99.90;;;;;;4983838;28;21186;-79
2022/11/05 09:23:09;;;;;;;6.77;3.40;;;20.40;99.90;;;;;;5001061;28;20602;-80
2022/11/05 09:25:35;;;;;;;4.53;3.20;;;21.00;99.90;;;;;;5001184;28;20270;-81
2022/11/05 09:28:13;;;;;;;4.87;2.90;;;21.50;99.90;;;;;;5000490;28;20606;-80
2022/11/05 09:30:44;;;;;;;3.10;2.30;;;22.00;99.90;;;;;;5002189;28;20570;-80
2022/11/05 09:33:09;;;;;;;5.27;2.90;;;22.60;99.90;;;;;;4996032;28;20974;-80
2022/11/05 09:35:39;;;;;;;4.87;2.60;;;23.20;99.90;;;;;;4979776;28;20703;-80
2022/11/05 09:38:06;;;;;;;5.33;2.23;;;23.70;99.90;;;;;;4980815;28;21342;-80
2022/11/05 09:40:38;;;;;;;3.97;2.27;;;24.20;99.90;;;;;;5000217;28;20567;-80
2022/11/05 09:43:05;;;;;;;2.93;2.07;;;24.50;99.90;;;;;;4983040;28;20613;-80
2022/11/05 09:45:34;;;;;;;2.83;1.70;;;24.90;99.90;;;;;;5001002;28;20570;-80
2022/11/05 09:48:07;;;;;;;4.50;2.67;;;25.30;99.90;;;;;;5001141;28;20576;-81
2022/11/05 09:50:40;;;;;;;6.17;2.40;;;25.60;99.90;;;;;;4982949;28;20603;-80
2022/11/05 09:53:09;;;;;;;4.03;2.03;;;25.80;99.90;;;;;;5000533;28;20608;-80
2022/11/05 09:55:38;;;;;;;3.93;2.67;;;25.90;99.90;;;;;;4982697;28;20619;-79
2022/11/05 09:58:15;;;;;;;5.87;1.97;;;25.80;99.90;;;;;;5000989;28;20579;-79
2022/11/05 10:00:41;;;;;;;2.40;1.73;;;25.80;99.90;;;;;;5003214;28;20605;-79
2022/11/05 10:03:12;;;;;;;3.87;1.90;;;25.70;99.90;;;;;;5003550;28;20602;-79
2022/11/05 10:05:39;;;;;;;4.50;1.63;;;25.50;99.90;;;;;;5007463;28;20262;-79
2022/11/05 10:08:15;;;;;;;4.13;2.37;;;25.20;99.90;;;;;;4989489;28;20570;-78
2022/11/05 10:10:49;;;;;;;3.20;1.70;;;24.80;99.90;;;;;;4990113;28;20585;-79
2022/11/05 10:13:33;;;;;;;3.90;1.80;;;24.30;99.90;;;;;;5005856;28;20597;-78
2022/11/05 10:16:27;;;;;;;6.03;2.07;;;23.60;99.90;;;;;;4986653;28;20630;-78
2022/11/05 10:19:11;;;;;;;5.03;1.70;;;23.00;99.90;;;;;;4990014;28;20669;-80
2022/11/05 10:21:38;;;;;;;3.60;2.10;;;22.30;99.30;;;;;;5002166;28;20613;-79
2022/11/05 10:24:19;;;;;;;3.27;1.57;;;21.70;99.90;;;;;;4984645;28;20950;-79
2022/11/05 10:26:49;;;;;;;3.30;1.83;;;21.10;99.90;;;;;;4984464;28;20570;-79
2022/11/05 10:29:28;;;;;;;2.67;1.60;;;20.60;99.90;;;;;;5001059;28;21119;-79
2022/11/05 10:31:56;;;;;;;6.03;2.77;;;20.10;99.90;;;;;;4983114;28;20682;-79
2022/11/05 10:34:24;;;;;;;6.20;2.20;;;19.60;99.90;;;;;;4965219;28;21072;-79
2022/11/05 10:36:50;;;;;;;4.93;2.23;;;19.30;99.90;;;;;;4982914;28;20641;-79
2022/11/05 10:39:18;;;;;;;4.13;1.90;;;18.90;99.90;;;;;;4982301;28;20605;-79
2022/11/05 10:41:52;;;;;;;4.97;1.50;;;18.70;99.90;;;;;;4964914;28;20606;-79
2022/11/05 10:44:32;;;;;;;4.43;1.73;;;18.40;99.90;;;;;;4965902;28;20637;-80
2022/11/05 10:47:24;;;;;;;3.13;1.40;;;18.30;99.90;;;;;;4983622;28;20611;-80
2022/11/05 10:50:07;;;;;;;2.53;1.30;;;18.20;99.90;;;;;;4965669;28;20682;-81
2022/11/05 10:52:50;;;;;;;5.00;1.77;;;18.10;99.90;;;;;;4981488;28;20625;-80
2022/11/05 10:55:31;;;;;;;2.53;1.43;;;18.10;99.90;;;;;;4978543;28;20714;-78
2022/11/05 10:58:08;;;;;;;3.07;1.67;;;18.10;99.90;;;;;;4979849;28;20618;-79
2022/11/05 11:00:35;;;;;;;3.33;1.73;;;18.10;99.90;;;;;;4982465;28;20606;-79
2022/11/05 11:03:04;;;;;;;3.00;1.23;;;18.20;99.90;;;;;;4981780;28;20867;-79
2022/11/05 11:05:38;;;;;;;8.03;2.60;;;18.20;99.90;;;;;;4966863;28;20573;-79
2022/11/05 11:08:10;;;;;;;3.33;1.50;;;18.20;99.90;;;;;;4966017;28;20575;-79
2022/11/05 11:10:50;;;;;;;5.70;0.90;;;18.20;99.90;;;;;;4981241;28;20590;-79
2022/11/05 11:13:25;;;;;;;4.30;1.20;;;18.20;99.90;;;;;;4981607;28;20595;-79
2022/11/05 11:15:52;;;;;;;5.03;1.10;;;18.10;99.90;;;;;;4963801;28;20634;-79
2022/11/05 11:18:38;;;;;;;3.67;1.00;;;18.10;99.90;;;;;;4983202;28;20935;-80
2022/11/05 11:21:11;;;;;;;5.60;1.00;;;18.00;99.90;;;;;;4983606;28;20666;-79
2022/11/05 11:23:41;;;;;;;6.60;1.10;;;17.90;99.90;;;;;;4984745;28;20642;-79
2022/11/05 11:26:09;;;;;;;4.90;1.20;;;17.80;99.90;;;;;;4982295;28;21185;-80
2022/11/05 11:29:13;;;;;;;4.40;1.30;;;17.80;99.90;;;;;;4981988;28;20582;-80
2022/11/05 11:31:40;;;;;;;4.83;1.30;;;17.60;99.90;;;;;;4965733;28;20595;-79
2022/11/05 11:34:22;;;;;;;4.80;1.20;;;17.50;99.90;;;;;;4983849;28;20947;-79
2022/11/05 11:36:54;;;;;;;2.10;1.00;;;17.30;99.90;;;;;;4965461;28;20677;-79
2022/11/05 11:39:24;;;;;;;2.83;1.03;;;17.20;99.90;;;;;;4983796;28;20591;-79
2022/11/05 11:41:59;;;;;;;4.67;1.87;;;17.10;99.90;;;;;;4981175;28;20578;-79
2022/11/05 11:44:32;;;;;;;5.07;2.63;;;17.00;99.90;;;;;;4965956;28;20590;-79
2022/11/05 11:47:09;;;;;;;4.30;2.00;;;16.90;99.90;;;;;;4981724;28;20631;-79
2022/11/05 11:49:57;;;;;;;7.33;4.10;;;16.80;99.90;;;;;;4982287;28;20570;-82
2022/11/05 11:52:28;;;;;;;6.67;3.47;;;16.80;99.90;;;;;;4983488;28;20619;-79
2022/11/05 11:55:12;;;;;;;4.40;1.77;;;16.70;99.90;;;;;;4983669;28;20607;-79
2022/11/05 11:57:48;;;;;;;6.10;1.50;;;16.70;99.90;;;;;;4980058;28;20601;-79
2022/11/05 12:00:16;;;;;;;2.70;1.07;;;16.70;99.90;;;;;;4966549;28;20668;-79
2022/11/05 12:02:56;;;;;;;2.03;1.10;;;16.60;99.90;;;;;;4974086;28;20646;-80
2022/11/05 12:05:42;;;;;;;2.33;0.90;;;16.60;99.90;;;;;;4956891;28;20630;-80
2022/11/05 12:08:31;;;;;;;2.50;1.00;;;16.60;99.90;;;;;;4956909;28;20579;-80
2022/11/05 12:11:04;;;;;;;4.03;2.40;;;16.60;99.90;;;;;;4972704;28;20575;-80
2022/11/05 12:13:51;;;;;;;3.03;0.97;;;16.60;99.90;;;;;;4956346;28;20609;-81
2022/11/05 12:16:23;;;;;;;2.37;0.90;;;16.70;99.90;;;;;;4957411;28;20621;-81
2022/11/05 12:18:57;;;;;;;2.50;0.90;;;16.80;99.90;;;;;;4956430;28;20579;-80
2022/11/05 12:21:44;;;;;;;3.93;0.90;;;16.80;99.90;;;;;;4973735;28;20567;-81
2022/11/05 12:24:26;;;;;;;5.87;2.33;;;16.80;99.90;;;;;;4973314;28;20690;-79
2022/11/05 12:27:08;;;;;;;2.53;0.80;;;16.90;99.90;;;;;;4972327;28;20560;-79
2022/11/05 12:29:36;;;;;;;3.20;1.33;;;16.90;99.90;;;;;;4973435;28;20574;-81
2022/11/05 12:32:20;;;;;;;2.97;0.70;;;16.90;99.90;;;;;;4973151;28;20562;-80
2022/11/05 12:35:27;;;;;;;1.90;0.80;;;16.90;99.90;;;;;;4972376;28;20614;-81
2022/11/05 12:38:02;;;;;;;2.03;1.10;;;16.80;99.90;;;;;;4979545;28;20593;-80
2022/11/05 12:40:33;;;;;;;3.73;0.80;;;16.80;99.90;;;;;;4973342;28;20575;-80
2022/11/05 12:43:30;;;;;;;5.57;1.03;;;16.70;99.90;;;;;;4979662;28;20657;-80
2022/11/05 12:46:25;;;;;;;4.73;1.10;;;16.70;99.90;;;;;;4972824;28;20598;-80
2022/11/05 12:48:53;;;;;;;3.13;0.80;;;16.60;99.90;;;;;;4992786;28;20566;-80
2022/11/05 12:51:28;;;;;;;2.67;0.97;;;16.60;99.90;;;;;;4974573;28;20582;-83
2022/11/05 12:53:59;;;;;;;1.90;0.90;;;16.60;99.90;;;;;;4975004;28;20617;-81
2022/11/05 12:56:43;;;;;;;3.17;1.00;;;16.60;99.90;;;;;;4975350;28;20582;-81
2022/11/05 12:59:15;;;;;;;2.77;0.90;;;16.50;99.90;;;;;;4968534;28;20607;-81
2022/11/05 13:01:44;;;;;;;3.43;0.83;;;16.50;99.90;;;;;;4935189;28;21196;-82
2022/11/05 13:04:22;;;;;;;2.23;1.10;;;16.50;99.90;;;;;;4962340;28;20630;-81
2022/11/05 13:06:53;;;;;;;1.97;0.70;;;16.50;99.90;;;;;;4935892;29;20576;-82
2022/11/05 13:09:27;;;;;;;2.40;0.93;;;16.50;99.90;;;;;;4970534;28;20618;-81
2022/11/05 13:11:56;;;;;;;2.63;0.90;;;16.40;99.90;;;;;;4955457;28;20951;-82
2022/11/05 13:14:41;;;;;;;2.73;0.80;;;16.40;99.90;;;;;;4960420;28;20678;-80
2022/11/05 13:17:14;;;;;;;1.90;0.70;;;16.40;99.90;;;;;;4955454;28;20583;-81
2022/11/05 13:19:43;;;;;;;2.63;0.90;;;16.40;99.90;;;;;;4939295;28;20634;-81
2022/11/05 13:22:54;;;;;;;1.90;0.80;;;16.40;99.90;;;;;;4975307;28;20614;-78
2022/11/05 13:25:30;;;;;;;2.60;1.00;;;16.50;99.90;;;;;;4943865;28;20723;-79
2022/11/05 13:28:16;;;;;;;3.50;0.70;;;16.50;99.90;;;;;;4979318;28;20936;-78
2022/11/05 13:30:50;;;;;;;3.00;0.80;;;16.50;99.90;;;;;;4982744;28;20595;-78
2022/11/05 13:33:34;;;;;;;2.87;1.00;;;16.50;99.90;;;;;;4976333;28;21042;-78
2022/11/05 13:39:08;;;;;;;4.40;0.90;;;16.50;99.90;;;;;;4994313;28;20599;-79
2022/11/05 13:41:42;;;;;;;4.93;1.00;;;16.60;99.90;;;;;;4977313;28;20591;-79
2022/11/05 13:44:33;;;;;;;2.13;0.80;;;16.50;99.90;;;;;;4992612;28;20622;-79
2022/11/05 13:47:36;;;;;;;2.83;1.27;;;16.60;99.90;;;;;;4992218;28;21154;-79